Terminal Aerodrome Forecast
Issued by NWS Nashville, TN

Home | Current Version | Previous Version | Text Only | Print | Product List | Glossary On
Versions: 1 2 3 4 5 6 7 8 9 10 11 12
938
FTUS44 KOHX 260539
TAFBNA
TAF
KBNA 260539Z 2606/2706 00000KT P6SM FEW250
     FM261900 22004KT P6SM VCSH SCT045 BKN090
     FM270000 19005KT P6SM FEW060 SCT160 BKN250=

USA.gov is the U.S. government's official web portal to all federal, state and local government web resources and services.